createdAt,value
2024-01-27T00:03:33.315Z,6.81
2024-01-27T00:07:35.197Z,6.75
2024-01-27T00:11:36.765Z,6.29
2024-01-27T00:15:38.395Z,6.87
2024-01-27T00:19:41.486Z,7.11
2024-01-27T00:23:43.580Z,6.75
2024-01-27T00:27:45.248Z,6.49
2024-01-27T00:31:46.897Z,6.95
2024-01-27T00:35:48.960Z,6.41
2024-01-27T00:39:50.514Z,7.06
2024-01-27T00:43:52.222Z,6.44
2024-01-27T00:47:54.331Z,6.33
2024-01-27T00:51:55.998Z,6.54
2024-01-27T00:55:57.793Z,6.48
2024-01-27T00:59:59.871Z,6.42
2024-01-27T01:04:01.463Z,6.11
2024-01-27T01:08:03.107Z,6.61
2024-01-27T01:12:05.679Z,6.91
2024-01-27T01:16:09.163Z,6.72
2024-01-27T01:20:11.371Z,6.35
2024-01-27T01:24:13.139Z,6.19
2024-01-27T01:28:14.934Z,6.07
2024-01-27T01:32:16.953Z,6.40
2024-01-27T01:36:18.907Z,6.24
2024-01-27T01:40:20.399Z,6.47
2024-01-27T01:44:22.313Z,6.71
2024-01-27T01:48:24.189Z,6.53
2024-01-27T01:52:25.796Z,6.47
2024-01-27T01:56:28.320Z,6.34
2024-01-27T02:00:30.182Z,6.08
2024-01-27T02:04:43.668Z,6.06
2024-01-27T02:08:45.309Z,6.18
2024-01-27T02:12:47.082Z,6.01
2024-01-27T02:16:48.657Z,6.34
2024-01-27T02:20:50.320Z,6.45
2024-01-27T02:24:52.039Z,6.27
2024-01-27T02:28:53.652Z,6.26
2024-01-27T02:32:57.292Z,6.26
2024-01-27T02:36:58.844Z,6.42
2024-01-27T02:41:00.317Z,6.87
2024-01-27T02:45:03.290Z,5.89
2024-01-27T02:49:05.008Z,5.98
2024-01-27T02:53:06.593Z,6.56
2024-01-27T02:57:08.435Z,5.70
2024-01-27T03:01:10.289Z,5.86
2024-01-27T03:05:15.438Z,6.38
2024-01-27T03:09:17.094Z,5.99
2024-01-27T03:13:20.342Z,5.62
2024-01-27T03:17:21.881Z,5.50
2024-01-27T03:21:23.346Z,6.13
2024-01-27T03:25:27.112Z,5.55
2024-01-27T03:29:29.421Z,5.73
2024-01-27T03:33:31.849Z,5.76
2024-01-27T03:37:34.331Z,6.12
2024-01-27T03:41:37.662Z,5.59
2024-01-27T03:45:39.843Z,5.86
2024-01-27T03:49:41.493Z,5.79
2024-01-27T03:53:43.202Z,5.55
2024-01-27T03:57:44.898Z,5.67
2024-01-27T04:01:46.474Z,6.00
2024-01-27T04:05:48.141Z,5.64
2024-01-27T04:09:49.826Z,5.72
2024-01-27T04:13:52.187Z,5.95
2024-01-27T04:17:54.187Z,5.53
2024-01-27T04:21:55.780Z,5.61
2024-01-27T04:25:57.318Z,5.90
2024-01-27T04:29:59.179Z,5.88
2024-01-27T04:34:01.697Z,5.47
2024-01-27T04:38:03.997Z,5.39
2024-01-27T04:42:07.648Z,5.44
2024-01-27T04:46:09.166Z,5.77
2024-01-27T04:50:10.990Z,5.54
2024-01-27T04:54:12.520Z,5.53
2024-01-27T04:58:14.562Z,5.47
2024-01-27T05:02:16.065Z,5.27
2024-01-27T05:06:18.540Z,5.35
2024-01-27T05:10:20.065Z,5.67
2024-01-27T05:14:22.036Z,5.77
2024-01-27T05:18:23.755Z,5.34
2024-01-27T05:22:25.455Z,5.80
2024-01-27T05:26:30.983Z,5.95
2024-01-27T05:30:33.639Z,6.31
2024-01-27T05:34:35.501Z,5.94
2024-01-27T05:38:37.313Z,6.26
2024-01-27T05:42:41.381Z,6.14
2024-01-27T05:46:43.234Z,5.96
2024-01-27T05:50:45.015Z,6.20
2024-01-27T05:54:46.584Z,5.54
2024-01-27T05:58:49.072Z,6.43
2024-01-27T06:02:50.698Z,6.35
2024-01-27T06:06:52.745Z,6.28
2024-01-27T06:10:54.385Z,5.84
2024-01-27T06:14:55.970Z,5.96
2024-01-27T06:18:57.955Z,6.26
2024-01-27T06:22:59.562Z,5.89
2024-01-27T06:27:01.314Z,6.51
2024-01-27T06:31:04.306Z,6.64
2024-01-27T06:35:06.689Z,5.79
2024-01-27T06:39:09.138Z,6.51
2024-01-27T06:43:13.439Z,5.89
2024-01-27T06:47:15.427Z,6.21
2024-01-27T06:51:17.589Z,6.49
2024-01-27T06:55:19.402Z,5.95
2024-01-27T06:59:21.359Z,6.39
2024-01-27T07:03:23.042Z,6.29
2024-01-27T07:07:28.829Z,7.09
2024-01-27T07:11:30.576Z,6.48
2024-01-27T07:15:32.141Z,6.17
2024-01-27T07:19:33.960Z,6.30
2024-01-27T07:23:36.916Z,6.29
2024-01-27T07:27:40.217Z,6.67
2024-01-27T07:31:42.349Z,6.60
2024-01-27T07:35:43.950Z,6.31
2024-01-27T07:39:45.502Z,6.67
2024-01-27T07:43:47.141Z,6.11
2024-01-27T07:47:48.992Z,6.40
2024-01-27T07:51:50.629Z,6.23
2024-01-27T07:55:55.177Z,6.90
2024-01-27T07:59:57.106Z,6.42
2024-01-27T08:03:58.799Z,6.65
2024-01-27T08:08:00.793Z,7.13
2024-01-27T08:12:03.036Z,7.21
2024-01-27T08:16:06.358Z,7.30
2024-01-27T08:20:10.449Z,7.57
2024-01-27T08:24:12.385Z,6.68
2024-01-27T08:28:14.160Z,7.01
2024-01-27T08:32:15.730Z,6.75
2024-01-27T08:36:17.319Z,6.61
2024-01-27T08:40:19.659Z,7.10
2024-01-27T08:44:21.642Z,6.91
2024-01-27T08:48:23.258Z,6.85
2024-01-27T08:52:25.005Z,7.35
2024-01-27T08:56:26.790Z,7.28
2024-01-27T09:00:28.464Z,7.10
2024-01-27T09:04:30.311Z,7.02
2024-01-27T09:08:31.994Z,7.48
2024-01-27T09:12:34.125Z,7.74
2024-01-27T09:16:36.032Z,7.52
2024-01-27T09:20:37.630Z,7.12
2024-01-27T09:24:40.579Z,7.22
2024-01-27T09:28:46.354Z,7.45
2024-01-27T09:32:48.295Z,6.58
2024-01-27T09:36:49.852Z,6.77
2024-01-27T09:40:51.371Z,7.09
2024-01-27T09:44:57.023Z,6.91
2024-01-27T09:49:00.023Z,7.00
2024-01-27T09:53:02.105Z,7.48
2024-01-27T09:57:04.072Z,7.21
2024-01-27T10:01:06.559Z,7.43
2024-01-27T10:05:11.296Z,7.25
2024-01-27T10:09:12.821Z,7.45
2024-01-27T10:13:18.701Z,7.00
2024-01-27T10:17:30.831Z,7.56
2024-01-27T10:21:32.543Z,7.42
2024-01-27T10:25:38.724Z,7.99
2024-01-27T10:29:40.332Z,7.18
2024-01-27T10:33:53.486Z,7.56
2024-01-27T10:37:58.954Z,8.28
2024-01-27T10:42:04.667Z,8.06
2024-01-27T10:46:09.837Z,8.01
2024-01-27T10:50:11.750Z,7.74
2024-01-27T10:54:24.236Z,7.59
2024-01-27T10:58:25.990Z,7.46
2024-01-27T11:02:33.365Z,7.59
2024-01-27T11:06:36.089Z,7.39
2024-01-27T11:10:39.273Z,8.33
2024-01-27T11:14:43.427Z,7.84
2024-01-27T11:18:46.774Z,7.56
2024-01-27T11:22:48.533Z,7.64
2024-01-27T11:27:01.270Z,7.37
2024-01-27T11:31:07.989Z,8.12
2024-01-27T11:35:09.825Z,7.52
2024-01-27T11:39:31.353Z,7.21
2024-01-27T11:43:33.002Z,7.45
2024-01-27T11:47:34.789Z,7.15
2024-01-27T11:51:37.090Z,8.02
2024-01-27T11:55:38.707Z,7.56
2024-01-27T11:59:40.847Z,7.93
2024-01-27T12:03:45.902Z,7.47
2024-01-27T12:07:47.912Z,7.60
2024-01-27T12:11:49.887Z,7.74
2024-01-27T12:15:51.676Z,8.59
2024-01-27T12:19:54.878Z,7.93
2024-01-27T12:24:00.761Z,8.73
2024-01-27T12:28:08.837Z,8.10
2024-01-27T12:32:11.304Z,7.89
2024-01-27T12:36:13.635Z,7.54
2024-01-27T12:40:23.290Z,7.78
2024-01-27T12:44:25.941Z,8.43
2024-01-27T12:48:27.580Z,8.82
2024-01-27T12:52:29.133Z,9.11
2024-01-27T12:56:30.731Z,9.56
2024-01-27T13:00:32.273Z,9.64
2024-01-27T13:04:33.835Z,10.17
2024-01-27T13:08:35.649Z,8.52
2024-01-27T13:12:37.329Z,10.14
2024-01-27T13:16:38.894Z,9.45
2024-01-27T13:20:41.308Z,10.03
2024-01-27T13:24:42.862Z,9.11
2024-01-27T13:28:44.531Z,9.50
2024-01-27T13:32:46.758Z,9.68
2024-01-27T13:36:48.905Z,8.41
2024-01-27T13:40:52.026Z,8.55
2024-01-27T13:44:53.968Z,8.95
2024-01-27T13:48:56.559Z,8.92
2024-01-27T13:52:59.015Z,10.30
2024-01-27T13:57:00.628Z,10.46
2024-01-27T14:01:02.373Z,10.40
2024-01-27T14:05:05.010Z,10.55
2024-01-27T14:09:07.969Z,10.24
2024-01-27T14:13:11.784Z,10.43
2024-01-27T14:17:13.540Z,9.26
2024-01-27T14:21:15.638Z,10.92
2024-01-27T14:25:17.275Z,10.57
2024-01-27T14:29:18.896Z,9.76
2024-01-27T14:33:22.295Z,11.58
2024-01-27T14:37:24.142Z,10.09
2024-01-27T14:41:25.716Z,10.01
2024-01-27T14:45:27.302Z,10.59
2024-01-27T14:49:29.414Z,10.73
2024-01-27T14:53:31.113Z,10.01
2024-01-27T14:57:32.756Z,10.17
2024-01-27T15:01:34.821Z,9.47
2024-01-27T15:05:42.195Z,9.21
2024-01-27T15:09:44.311Z,8.95
2024-01-27T15:13:45.961Z,10.04
2024-01-27T15:17:47.724Z,9.56
2024-01-27T15:21:49.331Z,9.64
2024-01-27T15:25:50.855Z,9.33
2024-01-27T15:29:55.659Z,9.45
2024-01-27T15:33:58.761Z,8.96
2024-01-27T15:38:00.358Z,8.85
2024-01-27T15:42:04.280Z,8.70
2024-01-27T15:46:07.128Z,8.39
2024-01-27T15:50:09.090Z,8.50
2024-01-27T15:54:10.792Z,8.16
2024-01-27T15:58:12.325Z,8.24
2024-01-27T16:02:15.293Z,8.41
2024-01-27T16:06:17.211Z,8.11
2024-01-27T16:10:18.897Z,8.43
2024-01-27T16:14:20.424Z,8.43
2024-01-27T16:18:22.143Z,7.70
2024-01-27T16:22:23.969Z,7.99
2024-01-27T16:26:28.257Z,7.97
2024-01-27T16:30:30.170Z,7.86
2024-01-27T16:34:32.950Z,8.04
2024-01-27T16:38:35.404Z,7.81
2024-01-27T16:42:38.435Z,7.62
2024-01-27T16:46:40.877Z,7.71
2024-01-27T16:50:45.125Z,7.84
2024-01-27T16:54:46.896Z,7.40
2024-01-27T16:58:51.092Z,7.35
2024-01-27T17:02:53.014Z,7.65
2024-01-27T17:06:54.824Z,7.56
2024-01-27T17:10:56.404Z,7.50
2024-01-27T17:14:57.964Z,7.31
2024-01-27T17:19:02.454Z,7.66
2024-01-27T17:23:04.151Z,7.24
2024-01-27T17:27:08.807Z,7.38
2024-01-27T17:31:13.828Z,6.95
2024-01-27T17:35:15.866Z,6.80
2024-01-27T17:39:18.281Z,6.87
2024-01-27T17:43:20.028Z,6.96
2024-01-27T17:47:21.580Z,7.03
2024-01-27T17:51:25.277Z,6.54
2024-01-27T17:55:27.062Z,6.38
2024-01-27T17:59:29.277Z,5.96
2024-01-27T18:03:30.955Z,6.43
2024-01-27T18:07:32.646Z,6.75
2024-01-27T18:11:34.321Z,6.04
2024-01-27T18:15:36.099Z,5.30
2024-01-27T18:19:38.047Z,5.89
2024-01-27T18:23:39.723Z,6.14
2024-01-27T18:27:43.858Z,5.44
2024-01-27T18:31:46.137Z,6.22
2024-01-27T18:35:47.742Z,6.02
2024-01-27T18:39:49.410Z,5.91
2024-01-27T18:43:50.892Z,5.79
2024-01-27T18:47:52.494Z,5.61
2024-01-27T18:55:57.451Z,5.55
2024-01-27T18:59:58.944Z,5.71
2024-01-27T19:04:00.537Z,5.84
2024-01-27T19:08:02.225Z,5.74
2024-01-27T19:12:04.253Z,5.10
2024-01-27T19:16:08.716Z,5.05
2024-01-27T19:20:13.834Z,5.41
2024-01-27T19:24:15.815Z,5.32
2024-01-27T19:28:17.311Z,4.70
2024-01-27T19:32:19.082Z,5.31
2024-01-27T19:36:20.673Z,4.96
2024-01-27T19:40:22.187Z,5.28
2024-01-27T19:44:23.743Z,5.77
2024-01-27T19:48:26.883Z,5.68
2024-01-27T19:52:28.439Z,5.87
2024-01-27T19:56:29.916Z,5.36
2024-01-27T20:00:34.683Z,5.68
2024-01-27T20:04:36.926Z,5.34
2024-01-27T20:08:39.565Z,5.43
2024-01-27T20:12:44.421Z,4.95
2024-01-27T20:16:48.156Z,5.70
2024-01-27T20:20:54.100Z,5.81
2024-01-27T20:24:56.309Z,5.09
2024-01-27T20:28:57.851Z,4.91
2024-01-27T20:33:00.107Z,5.03
2024-01-27T20:37:02.545Z,5.11
2024-01-27T20:41:04.482Z,4.97
2024-01-27T20:45:06.393Z,4.91
2024-01-27T20:49:08.237Z,5.19
2024-01-27T20:53:10.832Z,5.28
2024-01-27T20:57:12.413Z,5.19
2024-01-27T21:01:14.355Z,4.70
2024-01-27T21:05:16.157Z,4.92
2024-01-27T21:09:17.673Z,5.17
2024-01-27T21:13:20.095Z,5.04
2024-01-27T21:17:21.584Z,4.83
2024-01-27T21:21:23.108Z,5.44
2024-01-27T21:25:24.652Z,5.48
2024-01-27T21:29:26.244Z,5.86
2024-01-27T21:33:28.137Z,6.09
2024-01-27T21:37:30.259Z,5.62
2024-01-27T21:41:31.754Z,5.82
2024-01-27T21:45:33.357Z,5.77
2024-01-27T21:49:35.027Z,5.65
2024-01-27T21:53:39.113Z,5.40
2024-01-27T21:57:40.610Z,5.49
2024-01-27T22:01:42.522Z,5.21
2024-01-27T22:05:44.612Z,5.11
2024-01-27T22:09:46.353Z,5.24
2024-01-27T22:13:48.212Z,5.24
2024-01-27T22:17:49.806Z,5.06
2024-01-27T22:21:54.492Z,5.19
2024-01-27T22:25:56.312Z,5.42
2024-01-27T22:29:57.937Z,4.29
2024-01-27T22:33:59.476Z,5.26
2024-01-27T22:38:01.040Z,5.51
2024-01-27T22:42:02.827Z,4.98
2024-01-27T22:46:04.518Z,5.04
2024-01-27T22:50:06.794Z,5.18
2024-01-27T22:54:08.353Z,5.07
2024-01-27T22:58:10.018Z,5.01
2024-01-27T23:02:11.894Z,4.99
2024-01-27T23:06:14.824Z,4.71
2024-01-27T23:10:16.432Z,4.59
2024-01-27T23:14:17.928Z,4.37
2024-01-27T23:18:19.734Z,4.38
2024-01-27T23:22:22.143Z,4.02
2024-01-27T23:26:24.933Z,4.18
2024-01-27T23:30:26.568Z,4.22
2024-01-27T23:34:28.383Z,4.54
2024-01-27T23:38:30.241Z,4.24
2024-01-27T23:42:32.137Z,3.42
2024-01-27T23:46:33.901Z,3.80
2024-01-27T23:50:35.435Z,3.86
2024-01-27T23:54:38.312Z,3.61
2024-01-27T23:58:39.871Z,3.82
